sensor_id;sensor_type;location;lat;lon;timestamp;temperature;humidity
35700;DHT22;21818;51.078;12.108;2023-07-20T00:01:14;19.30;94.10
35700;DHT22;21818;51.078;12.108;2023-07-20T00:03:40;19.30;94.20
35700;DHT22;21818;51.078;12.108;2023-07-20T00:06:06;19.20;94.40
35700;DHT22;21818;51.078;12.108;2023-07-20T00:08:32;19.20;94.40
35700;DHT22;21818;51.078;12.108;2023-07-20T00:10:57;19.10;94.40
35700;DHT22;21818;51.078;12.108;2023-07-20T00:13:24;19.20;94.40
35700;DHT22;21818;51.078;12.108;2023-07-20T00:15:50;19.30;94.20
35700;DHT22;21818;51.078;12.108;2023-07-20T00:18:16;19.50;94.00
35700;DHT22;21818;51.078;12.108;2023-07-20T00:20:42;19.60;93.90
35700;DHT22;21818;51.078;12.108;2023-07-20T00:23:07;19.70;93.70
35700;DHT22;21818;51.078;12.108;2023-07-20T00:25:34;19.60;93.60
35700;DHT22;21818;51.078;12.108;2023-07-20T00:28:00;19.70;93.70
35700;DHT22;21818;51.078;12.108;2023-07-20T00:30:25;19.60;93.70
35700;DHT22;21818;51.078;12.108;2023-07-20T00:32:51;19.60;93.70
35700;DHT22;21818;51.078;12.108;2023-07-20T00:35:17;19.70;93.50
35700;DHT22;21818;51.078;12.108;2023-07-20T00:37:42;19.70;93.50
35700;DHT22;21818;51.078;12.108;2023-07-20T00:40:08;19.70;93.40
35700;DHT22;21818;51.078;12.108;2023-07-20T00:42:34;19.80;93.40
35700;DHT22;21818;51.078;12.108;2023-07-20T00:45:00;19.80;93.30
35700;DHT22;21818;51.078;12.108;2023-07-20T00:47:26;19.90;93.10
35700;DHT22;21818;51.078;12.108;2023-07-20T00:49:52;19.80;93.10
35700;DHT22;21818;51.078;12.108;2023-07-20T00:52:20;19.70;93.30
35700;DHT22;21818;51.078;12.108;2023-07-20T00:54:46;19.80;93.30
35700;DHT22;21818;51.078;12.108;2023-07-20T00:57:14;19.70;93.20
35700;DHT22;21818;51.078;12.108;2023-07-20T00:59:40;19.60;93.30
35700;DHT22;21818;51.078;12.108;2023-07-20T01:02:06;19.70;93.30
35700;DHT22;21818;51.078;12.108;2023-07-20T01:04:32;19.60;93.30
35700;DHT22;21818;51.078;12.108;2023-07-20T01:07:13;19.60;93.40
35700;DHT22;21818;51.078;12.108;2023-07-20T01:12:17;19.60;93.30
35700;DHT22;21818;51.078;12.108;2023-07-20T01:14:45;19.70;93.10
35700;DHT22;21818;51.078;12.108;2023-07-20T01:17:11;19.60;93.20
35700;DHT22;21818;51.078;12.108;2023-07-20T01:19:37;19.60;93.30
35700;DHT22;21818;51.078;12.108;2023-07-20T01:22:16;19.60;93.30
35700;DHT22;21818;51.078;12.108;2023-07-20T01:33:21;19.40;93.30
35700;DHT22;21818;51.078;12.108;2023-07-20T01:35:54;19.20;93.40
35700;DHT22;21818;51.078;12.108;2023-07-20T01:38:21;19.00;93.90
35700;DHT22;21818;51.078;12.108;2023-07-20T01:40:49;19.00;93.70
35700;DHT22;21818;51.078;12.108;2023-07-20T01:43:16;18.90;93.90
35700;DHT22;21818;51.078;12.108;2023-07-20T01:45:41;18.80;93.90
35700;DHT22;21818;51.078;12.108;2023-07-20T01:48:07;19.00;93.70
35700;DHT22;21818;51.078;12.108;2023-07-20T01:50:33;19.00;93.60
35700;DHT22;21818;51.078;12.108;2023-07-20T01:53:00;19.00;93.60
35700;DHT22;21818;51.078;12.108;2023-07-20T01:55:26;19.00;93.50
35700;DHT22;21818;51.078;12.108;2023-07-20T01:57:52;19.10;93.40
35700;DHT22;21818;51.078;12.108;2023-07-20T02:00:18;19.10;93.30
35700;DHT22;21818;51.078;12.108;2023-07-20T02:02:50;19.10;93.20
35700;DHT22;21818;51.078;12.108;2023-07-20T02:05:16;19.10;93.20
35700;DHT22;21818;51.078;12.108;2023-07-20T02:07:42;18.80;93.40
35700;DHT22;21818;51.078;12.108;2023-07-20T02:10:08;18.70;93.50
35700;DHT22;21818;51.078;12.108;2023-07-20T02:12:34;18.80;93.60
35700;DHT22;21818;51.078;12.108;2023-07-20T02:14:59;18.90;93.40
35700;DHT22;21818;51.078;12.108;2023-07-20T02:17:25;18.80;93.50
35700;DHT22;21818;51.078;12.108;2023-07-20T02:19:52;18.80;93.40
35700;DHT22;21818;51.078;12.108;2023-07-20T02:22:18;18.80;93.30
35700;DHT22;21818;51.078;12.108;2023-07-20T02:24:44;18.70;93.30
35700;DHT22;21818;51.078;12.108;2023-07-20T02:27:10;18.80;93.30
35700;DHT22;21818;51.078;12.108;2023-07-20T02:29:35;18.90;93.10
35700;DHT22;21818;51.078;12.108;2023-07-20T02:32:01;18.90;93.00
35700;DHT22;21818;51.078;12.108;2023-07-20T02:34:27;18.80;93.10
35700;DHT22;21818;51.078;12.108;2023-07-20T02:36:53;18.70;93.20
35700;DHT22;21818;51.078;12.108;2023-07-20T02:39:21;18.70;93.30
35700;DHT22;21818;51.078;12.108;2023-07-20T02:41:47;18.50;93.60
35700;DHT22;21818;51.078;12.108;2023-07-20T02:44:13;18.50;93.70
35700;DHT22;21818;51.078;12.108;2023-07-20T02:46:39;18.60;93.50
35700;DHT22;21818;51.078;12.108;2023-07-20T02:49:05;18.70;93.40
35700;DHT22;21818;51.078;12.108;2023-07-20T02:51:30;18.70;93.20
35700;DHT22;21818;51.078;12.108;2023-07-20T02:53:56;18.60;93.30
35700;DHT22;21818;51.078;12.108;2023-07-20T02:56:22;18.60;93.30
35700;DHT22;21818;51.078;12.108;2023-07-20T02:58:48;18.70;93.40
35700;DHT22;21818;51.078;12.108;2023-07-20T03:01:13;18.70;93.30
35700;DHT22;21818;51.078;12.108;2023-07-20T03:03:41;18.60;93.30
35700;DHT22;21818;51.078;12.108;2023-07-20T03:06:11;18.60;93.40
35700;DHT22;21818;51.078;12.108;2023-07-20T03:08:37;18.60;93.30
35700;DHT22;21818;51.078;12.108;2023-07-20T03:11:02;18.60;93.30
35700;DHT22;21818;51.078;12.108;2023-07-20T03:13:28;18.70;93.20
35700;DHT22;21818;51.078;12.108;2023-07-20T03:15:53;18.70;93.10
35700;DHT22;21818;51.078;12.108;2023-07-20T03:18:19;18.70;93.20
35700;DHT22;21818;51.078;12.108;2023-07-20T03:20:45;18.90;93.10
35700;DHT22;21818;51.078;12.108;2023-07-20T03:23:11;18.90;93.00
35700;DHT22;21818;51.078;12.108;2023-07-20T03:25:37;19.00;93.00
35700;DHT22;21818;51.078;12.108;2023-07-20T03:28:04;19.10;92.90
35700;DHT22;21818;51.078;12.108;2023-07-20T03:30:29;18.90;93.10
35700;DHT22;21818;51.078;12.108;2023-07-20T03:32:55;18.80;93.30
35700;DHT22;21818;51.078;12.108;2023-07-20T03:35:20;18.60;93.40
35700;DHT22;21818;51.078;12.108;2023-07-20T03:37:46;18.30;93.70
35700;DHT22;21818;51.078;12.108;2023-07-20T03:40:11;18.10;94.00
35700;DHT22;21818;51.078;12.108;2023-07-20T03:42:37;17.90;94.30
35700;DHT22;21818;51.078;12.108;2023-07-20T03:45:04;17.90;94.30
35700;DHT22;21818;51.078;12.108;2023-07-20T03:47:30;17.80;94.50
35700;DHT22;21818;51.078;12.108;2023-07-20T03:49:55;17.90;94.60
35700;DHT22;21818;51.078;12.108;2023-07-20T03:52:21;18.30;94.30
35700;DHT22;21818;51.078;12.108;2023-07-20T03:54:47;18.60;93.90
35700;DHT22;21818;51.078;12.108;2023-07-20T03:57:12;18.70;93.70
35700;DHT22;21818;51.078;12.108;2023-07-20T03:59:39;18.80;93.50
35700;DHT22;21818;51.078;12.108;2023-07-20T04:02:05;18.80;93.50
35700;DHT22;21818;51.078;12.108;2023-07-20T04:04:31;18.80;93.50
35700;DHT22;21818;51.078;12.108;2023-07-20T04:06:57;18.70;93.80
35700;DHT22;21818;51.078;12.108;2023-07-20T04:09:22;18.50;94.30
35700;DHT22;21818;51.078;12.108;2023-07-20T04:11:48;18.60;94.40
35700;DHT22;21818;51.078;12.108;2023-07-20T04:14:13;18.50;94.50
35700;DHT22;21818;51.078;12.108;2023-07-20T04:16:39;18.20;95.10
35700;DHT22;21818;51.078;12.108;2023-07-20T04:19:04;18.10;95.20
35700;DHT22;21818;51.078;12.108;2023-07-20T04:21:30;18.10;95.00
35700;DHT22;21818;51.078;12.108;2023-07-20T04:23:56;18.40;94.70
35700;DHT22;21818;51.078;12.108;2023-07-20T04:26:21;19.00;93.90
35700;DHT22;21818;51.078;12.108;2023-07-20T04:28:47;19.40;93.10
35700;DHT22;21818;51.078;12.108;2023-07-20T04:31:14;19.00;93.30
35700;DHT22;21818;51.078;12.108;2023-07-20T04:33:40;18.60;93.70
35700;DHT22;21818;51.078;12.108;2023-07-20T04:36:06;18.40;94.00
35700;DHT22;21818;51.078;12.108;2023-07-20T04:38:31;18.30;94.00
35700;DHT22;21818;51.078;12.108;2023-07-20T04:40:57;18.20;94.30
35700;DHT22;21818;51.078;12.108;2023-07-20T04:43:23;18.10;94.50
35700;DHT22;21818;51.078;12.108;2023-07-20T04:45:48;18.20;94.70
35700;DHT22;21818;51.078;12.108;2023-07-20T04:48:16;18.40;94.30
35700;DHT22;21818;51.078;12.108;2023-07-20T04:50:44;18.60;94.00
35700;DHT22;21818;51.078;12.108;2023-07-20T04:53:14;18.70;93.90
35700;DHT22;21818;51.078;12.108;2023-07-20T04:55:40;18.70;94.10
35700;DHT22;21818;51.078;12.108;2023-07-20T04:58:06;18.80;93.90
35700;DHT22;21818;51.078;12.108;2023-07-20T05:00:37;18.90;93.80
35700;DHT22;21818;51.078;12.108;2023-07-20T05:03:03;19.00;93.80
35700;DHT22;21818;51.078;12.108;2023-07-20T05:05:30;19.00;94.20
35700;DHT22;21818;51.078;12.108;2023-07-20T05:07:56;19.00;93.80
35700;DHT22;21818;51.078;12.108;2023-07-20T05:10:23;19.00;93.90
35700;DHT22;21818;51.078;12.108;2023-07-20T05:12:49;19.00;94.00
35700;DHT22;21818;51.078;12.108;2023-07-20T05:15:14;19.00;94.00
35700;DHT22;21818;51.078;12.108;2023-07-20T05:17:40;19.00;94.00
35700;DHT22;21818;51.078;12.108;2023-07-20T05:20:06;19.00;94.10
35700;DHT22;21818;51.078;12.108;2023-07-20T05:22:32;19.10;94.00
35700;DHT22;21818;51.078;12.108;2023-07-20T05:24:59;19.10;94.00
35700;DHT22;21818;51.078;12.108;2023-07-20T05:27:24;19.10;94.10
35700;DHT22;21818;51.078;12.108;2023-07-20T05:29:50;19.10;94.20
35700;DHT22;21818;51.078;12.108;2023-07-20T05:32:16;19.10;94.30
35700;DHT22;21818;51.078;12.108;2023-07-20T05:34:41;19.00;94.30
35700;DHT22;21818;51.078;12.108;2023-07-20T05:37:07;18.90;94.30
35700;DHT22;21818;51.078;12.108;2023-07-20T05:39:33;18.80;94.80
35700;DHT22;21818;51.078;12.108;2023-07-20T05:41:58;18.70;94.90
35700;DHT22;21818;51.078;12.108;2023-07-20T05:44:24;18.70;95.10
35700;DHT22;21818;51.078;12.108;2023-07-20T05:46:49;18.80;95.10
35700;DHT22;21818;51.078;12.108;2023-07-20T05:49:15;18.90;95.20
35700;DHT22;21818;51.078;12.108;2023-07-20T05:51:41;19.00;95.00
35700;DHT22;21818;51.078;12.108;2023-07-20T05:54:06;19.00;94.80
35700;DHT22;21818;51.078;12.108;2023-07-20T05:56:32;19.00;95.00
35700;DHT22;21818;51.078;12.108;2023-07-20T05:58:57;19.00;95.10
35700;DHT22;21818;51.078;12.108;2023-07-20T06:01:23;19.00;95.30
35700;DHT22;21818;51.078;12.108;2023-07-20T06:03:52;19.00;95.30
35700;DHT22;21818;51.078;12.108;2023-07-20T06:06:17;19.00;95.30
35700;DHT22;21818;51.078;12.108;2023-07-20T06:08:43;19.00;95.20
35700;DHT22;21818;51.078;12.108;2023-07-20T06:11:09;18.90;95.60
35700;DHT22;21818;51.078;12.108;2023-07-20T06:13:35;19.00;95.60
35700;DHT22;21818;51.078;12.108;2023-07-20T06:16:01;19.00;95.60
35700;DHT22;21818;51.078;12.108;2023-07-20T06:18:27;19.10;95.60
35700;DHT22;21818;51.078;12.108;2023-07-20T06:20:53;19.10;95.50
35700;DHT22;21818;51.078;12.108;2023-07-20T06:23:19;19.00;95.80
35700;DHT22;21818;51.078;12.108;2023-07-20T06:25:45;18.90;96.10
35700;DHT22;21818;51.078;12.108;2023-07-20T06:28:11;18.80;96.10
35700;DHT22;21818;51.078;12.108;2023-07-20T06:30:37;18.70;96.20
35700;DHT22;21818;51.078;12.108;2023-07-20T06:33:02;18.80;96.10
35700;DHT22;21818;51.078;12.108;2023-07-20T06:35:28;18.80;95.80
35700;DHT22;21818;51.078;12.108;2023-07-20T06:37:54;18.80;95.90
35700;DHT22;21818;51.078;12.108;2023-07-20T06:40:20;18.90;95.80
35700;DHT22;21818;51.078;12.108;2023-07-20T06:42:46;19.10;95.70
35700;DHT22;21818;51.078;12.108;2023-07-20T06:45:11;19.20;95.60
35700;DHT22;21818;51.078;12.108;2023-07-20T06:47:39;19.30;95.60
35700;DHT22;21818;51.078;12.108;2023-07-20T06:50:08;19.30;95.40
35700;DHT22;21818;51.078;12.108;2023-07-20T06:52:34;19.40;95.20
35700;DHT22;21818;51.078;12.108;2023-07-20T06:55:00;19.40;95.20
35700;DHT22;21818;51.078;12.108;2023-07-20T06:57:26;19.40;95.20
35700;DHT22;21818;51.078;12.108;2023-07-20T06:59:51;19.40;95.20
35700;DHT22;21818;51.078;12.108;2023-07-20T07:02:17;19.20;95.40
35700;DHT22;21818;51.078;12.108;2023-07-20T07:04:43;19.20;95.40
35700;DHT22;21818;51.078;12.108;2023-07-20T07:07:09;19.10;95.20
35700;DHT22;21818;51.078;12.108;2023-07-20T07:09:35;19.10;95.40
35700;DHT22;21818;51.078;12.108;2023-07-20T07:12:01;19.10;95.40
35700;DHT22;21818;51.078;12.108;2023-07-20T07:14:26;19.20;95.30
35700;DHT22;21818;51.078;12.108;2023-07-20T07:16:52;19.50;95.00
35700;DHT22;21818;51.078;12.108;2023-07-20T07:19:18;19.70;94.80
35700;DHT22;21818;51.078;12.108;2023-07-20T07:21:43;19.70;94.80
35700;DHT22;21818;51.078;12.108;2023-07-20T07:24:09;19.70;94.80
35700;DHT22;21818;51.078;12.108;2023-07-20T07:26:36;19.80;94.70
35700;DHT22;21818;51.078;12.108;2023-07-20T07:29:02;19.80;94.70
35700;DHT22;21818;51.078;12.108;2023-07-20T07:31:29;19.60;94.90
35700;DHT22;21818;51.078;12.108;2023-07-20T07:33:55;19.60;94.90
35700;DHT22;21818;51.078;12.108;2023-07-20T07:36:21;19.50;94.80
35700;DHT22;21818;51.078;12.108;2023-07-20T07:38:47;19.60;94.90
35700;DHT22;21818;51.078;12.108;2023-07-20T07:41:13;19.50;94.80
35700;DHT22;21818;51.078;12.108;2023-07-20T07:43:39;19.50;94.90
35700;DHT22;21818;51.078;12.108;2023-07-20T07:46:05;19.70;94.70
35700;DHT22;21818;51.078;12.108;2023-07-20T07:48:30;19.90;94.40
35700;DHT22;21818;51.078;12.108;2023-07-20T07:50:56;20.00;94.10
35700;DHT22;21818;51.078;12.108;2023-07-20T07:53:21;20.20;93.80
35700;DHT22;21818;51.078;12.108;2023-07-20T07:55:48;20.30;93.60
35700;DHT22;21818;51.078;12.108;2023-07-20T07:58:14;20.40;93.40
35700;DHT22;21818;51.078;12.108;2023-07-20T08:00:39;20.40;93.20
35700;DHT22;21818;51.078;12.108;2023-07-20T08:03:08;20.50;93.30
35700;DHT22;21818;51.078;12.108;2023-07-20T08:05:34;20.60;92.90
35700;DHT22;21818;51.078;12.108;2023-07-20T08:08:01;20.60;92.80
35700;DHT22;21818;51.078;12.108;2023-07-20T08:10:26;20.70;92.70
35700;DHT22;21818;51.078;12.108;2023-07-20T08:12:52;20.70;92.60
35700;DHT22;21818;51.078;12.108;2023-07-20T08:15:18;20.70;92.50
35700;DHT22;21818;51.078;12.108;2023-07-20T08:17:43;20.70;92.60
35700;DHT22;21818;51.078;12.108;2023-07-20T08:20:10;20.80;92.30
35700;DHT22;21818;51.078;12.108;2023-07-20T08:22:38;20.80;92.20
35700;DHT22;21818;51.078;12.108;2023-07-20T08:25:06;20.80;92.10
35700;DHT22;21818;51.078;12.108;2023-07-20T08:27:32;20.80;92.00
35700;DHT22;21818;51.078;12.108;2023-07-20T08:29:57;20.90;92.00
35700;DHT22;21818;51.078;12.108;2023-07-20T08:32:23;20.90;91.90
35700;DHT22;21818;51.078;12.108;2023-07-20T08:34:48;20.90;91.80
35700;DHT22;21818;51.078;12.108;2023-07-20T08:37:14;20.90;91.70
35700;DHT22;21818;51.078;12.108;2023-07-20T08:39:40;21.00;91.70
35700;DHT22;21818;51.078;12.108;2023-07-20T08:42:06;21.00;91.60
35700;DHT22;21818;51.078;12.108;2023-07-20T08:44:36;21.00;91.50
35700;DHT22;21818;51.078;12.108;2023-07-20T08:47:02;21.00;91.50
35700;DHT22;21818;51.078;12.108;2023-07-20T08:49:31;21.00;91.40
35700;DHT22;21818;51.078;12.108;2023-07-20T08:51:57;21.10;91.40
35700;DHT22;21818;51.078;12.108;2023-07-20T08:54:24;21.10;91.20
35700;DHT22;21818;51.078;12.108;2023-07-20T08:56:53;21.10;91.20
35700;DHT22;21818;51.078;12.108;2023-07-20T08:59:19;21.10;91.10
35700;DHT22;21818;51.078;12.108;2023-07-20T09:01:47;21.10;91.10
35700;DHT22;21818;51.078;12.108;2023-07-20T09:04:13;21.10;91.00
35700;DHT22;21818;51.078;12.108;2023-07-20T09:06:39;21.20;91.00
35700;DHT22;21818;51.078;12.108;2023-07-20T09:09:04;21.10;90.90
35700;DHT22;21818;51.078;12.108;2023-07-20T09:11:30;21.20;90.90
35700;DHT22;21818;51.078;12.108;2023-07-20T09:14:06;21.20;90.80
35700;DHT22;21818;51.078;12.108;2023-07-20T09:16:33;21.20;90.70
35700;DHT22;21818;51.078;12.108;2023-07-20T09:19:11;21.20;90.70
35700;DHT22;21818;51.078;12.108;2023-07-20T09:21:37;21.20;90.70
35700;DHT22;21818;51.078;12.108;2023-07-20T09:24:03;21.20;90.90
35700;DHT22;21818;51.078;12.108;2023-07-20T09:26:29;21.30;90.60
35700;DHT22;21818;51.078;12.108;2023-07-20T09:28:54;21.30;90.50
35700;DHT22;21818;51.078;12.108;2023-07-20T09:31:22;21.20;90.50
35700;DHT22;21818;51.078;12.108;2023-07-20T09:33:49;21.20;90.40
35700;DHT22;21818;51.078;12.108;2023-07-20T09:36:15;21.30;90.40
35700;DHT22;21818;51.078;12.108;2023-07-20T09:38:44;21.30;90.30
35700;DHT22;21818;51.078;12.108;2023-07-20T09:41:14;21.30;90.30
35700;DHT22;21818;51.078;12.108;2023-07-20T09:43:41;21.30;90.30
35700;DHT22;21818;51.078;12.108;2023-07-20T09:46:06;21.30;90.20
35700;DHT22;21818;51.078;12.108;2023-07-20T09:48:32;21.40;90.20
35700;DHT22;21818;51.078;12.108;2023-07-20T09:50:58;21.30;90.10
35700;DHT22;21818;51.078;12.108;2023-07-20T09:53:25;21.40;90.10
35700;DHT22;21818;51.078;12.108;2023-07-20T09:55:52;21.40;90.00
35700;DHT22;21818;51.078;12.108;2023-07-20T09:58:19;21.40;90.00
35700;DHT22;21818;51.078;12.108;2023-07-20T10:00:45;21.40;89.90
35700;DHT22;21818;51.078;12.108;2023-07-20T10:03:20;21.40;89.70
35700;DHT22;21818;51.078;12.108;2023-07-20T10:06:06;21.40;89.70
35700;DHT22;21818;51.078;12.108;2023-07-20T10:08:37;21.50;89.50
35700;DHT22;21818;51.078;12.108;2023-07-20T10:11:05;21.50;89.50
35700;DHT22;21818;51.078;12.108;2023-07-20T10:13:37;21.50;89.40
35700;DHT22;21818;51.078;12.108;2023-07-20T10:16:10;21.50;89.30
35700;DHT22;21818;51.078;12.108;2023-07-20T10:21:26;21.50;89.20
35700;DHT22;21818;51.078;12.108;2023-07-20T10:23:53;21.50;89.20
35700;DHT22;21818;51.078;12.108;2023-07-20T10:26:19;21.50;89.00
35700;DHT22;21818;51.078;12.108;2023-07-20T10:28:45;21.50;89.00
35700;DHT22;21818;51.078;12.108;2023-07-20T10:31:12;21.50;88.80
35700;DHT22;21818;51.078;12.108;2023-07-20T10:33:39;21.50;88.80
35700;DHT22;21818;51.078;12.108;2023-07-20T10:36:05;21.60;88.80
35700;DHT22;21818;51.078;12.108;2023-07-20T10:41:34;21.60;88.70
35700;DHT22;21818;51.078;12.108;2023-07-20T10:44:05;21.60;88.70
35700;DHT22;21818;51.078;12.108;2023-07-20T10:46:45;21.60;88.60
35700;DHT22;21818;51.078;12.108;2023-07-20T10:49:11;21.70;88.50
35700;DHT22;21818;51.078;12.108;2023-07-20T10:51:48;21.70;88.40
35700;DHT22;21818;51.078;12.108;2023-07-20T10:56:49;21.70;88.40
35700;DHT22;21818;51.078;12.108;2023-07-20T10:59:18;21.70;88.00
35700;DHT22;21818;51.078;12.108;2023-07-20T11:01:46;21.70;87.90
35700;DHT22;21818;51.078;12.108;2023-07-20T11:04:12;21.70;87.80
35700;DHT22;21818;51.078;12.108;2023-07-20T11:06:43;21.70;87.80
35700;DHT22;21818;51.078;12.108;2023-07-20T11:09:11;21.70;87.70
35700;DHT22;21818;51.078;12.108;2023-07-20T11:11:38;21.70;87.70
35700;DHT22;21818;51.078;12.108;2023-07-20T11:14:19;21.70;87.70
35700;DHT22;21818;51.078;12.108;2023-07-20T11:16:47;21.70;87.60
35700;DHT22;21818;51.078;12.108;2023-07-20T11:19:21;21.70;87.60
35700;DHT22;21818;51.078;12.108;2023-07-20T11:21:57;21.70;87.50
35700;DHT22;21818;51.078;12.108;2023-07-20T11:24:23;21.70;87.50
35700;DHT22;21818;51.078;12.108;2023-07-20T11:26:53;21.70;87.50
35700;DHT22;21818;51.078;12.108;2023-07-20T11:29:20;21.70;87.40
35700;DHT22;21818;51.078;12.108;2023-07-20T11:31:47;21.70;87.50
35700;DHT22;21818;51.078;12.108;2023-07-20T11:34:18;21.70;87.40
35700;DHT22;21818;51.078;12.108;2023-07-20T11:36:45;21.70;87.40
35700;DHT22;21818;51.078;12.108;2023-07-20T11:39:15;21.70;87.30
35700;DHT22;21818;51.078;12.108;2023-07-20T11:41:47;21.70;87.90
35700;DHT22;21818;51.078;12.108;2023-07-20T11:44:13;21.70;87.30
35700;DHT22;21818;51.078;12.108;2023-07-20T11:46:41;21.70;87.30
35700;DHT22;21818;51.078;12.108;2023-07-20T11:49:08;21.70;87.20
35700;DHT22;21818;51.078;12.108;2023-07-20T11:51:34;21.70;87.20
35700;DHT22;21818;51.078;12.108;2023-07-20T11:54:02;21.70;87.10
35700;DHT22;21818;51.078;12.108;2023-07-20T11:56:28;21.70;87.10
35700;DHT22;21818;51.078;12.108;2023-07-20T11:59:00;21.70;87.10
35700;DHT22;21818;51.078;12.108;2023-07-20T12:01:28;21.70;87.10
35700;DHT22;21818;51.078;12.108;2023-07-20T12:04:12;21.70;87.00
35700;DHT22;21818;51.078;12.108;2023-07-20T12:06:38;21.70;87.00
35700;DHT22;21818;51.078;12.108;2023-07-20T12:09:04;21.70;87.00
35700;DHT22;21818;51.078;12.108;2023-07-20T12:11:39;21.70;87.60
35700;DHT22;21818;51.078;12.108;2023-07-20T12:14:08;21.70;87.00
35700;DHT22;21818;51.078;12.108;2023-07-20T12:16:36;21.70;87.00
35700;DHT22;21818;51.078;12.108;2023-07-20T12:19:05;21.70;86.90
35700;DHT22;21818;51.078;12.108;2023-07-20T12:21:33;21.70;86.90
35700;DHT22;21818;51.078;12.108;2023-07-20T12:23:59;21.70;86.90
35700;DHT22;21818;51.078;12.108;2023-07-20T12:26:26;21.70;87.00
35700;DHT22;21818;51.078;12.108;2023-07-20T12:28:52;21.70;87.00
35700;DHT22;21818;51.078;12.108;2023-07-20T12:31:17;21.70;86.90
35700;DHT22;21818;51.078;12.108;2023-07-20T12:33:43;21.70;86.90
35700;DHT22;21818;51.078;12.108;2023-07-20T12:36:09;21.70;87.00
35700;DHT22;21818;51.078;12.108;2023-07-20T12:38:35;21.70;87.00
35700;DHT22;21818;51.078;12.108;2023-07-20T12:41:02;21.80;86.90
35700;DHT22;21818;51.078;12.108;2023-07-20T12:43:28;21.70;86.90
35700;DHT22;21818;51.078;12.108;2023-07-20T12:45:55;21.80;86.90
35700;DHT22;21818;51.078;12.108;2023-07-20T12:48:20;21.80;86.90
35700;DHT22;21818;51.078;12.108;2023-07-20T12:50:46;21.80;86.80
35700;DHT22;21818;51.078;12.108;2023-07-20T12:53:12;21.80;86.70
35700;DHT22;21818;51.078;12.108;2023-07-20T12:55:38;21.80;86.70
35700;DHT22;21818;51.078;12.108;2023-07-20T12:58:07;21.80;86.60
35700;DHT22;21818;51.078;12.108;2023-07-20T13:00:33;21.80;86.60
35700;DHT22;21818;51.078;12.108;2023-07-20T13:02:59;21.80;86.40
35700;DHT22;21818;51.078;12.108;2023-07-20T13:05:25;21.80;86.30
35700;DHT22;21818;51.078;12.108;2023-07-20T13:07:51;21.90;86.30
35700;DHT22;21818;51.078;12.108;2023-07-20T13:10:16;21.90;86.20
35700;DHT22;21818;51.078;12.108;2023-07-20T13:12:42;21.90;86.20
35700;DHT22;21818;51.078;12.108;2023-07-20T13:15:09;21.90;86.10
35700;DHT22;21818;51.078;12.108;2023-07-20T13:17:36;21.90;86.00
35700;DHT22;21818;51.078;12.108;2023-07-20T13:20:03;21.90;86.00
35700;DHT22;21818;51.078;12.108;2023-07-20T13:22:33;21.90;85.80
35700;DHT22;21818;51.078;12.108;2023-07-20T13:24:59;21.90;85.80
35700;DHT22;21818;51.078;12.108;2023-07-20T13:27:25;21.90;85.70
35700;DHT22;21818;51.078;12.108;2023-07-20T13:29:54;21.90;85.70
35700;DHT22;21818;51.078;12.108;2023-07-20T13:32:19;21.90;85.60
35700;DHT22;21818;51.078;12.108;2023-07-20T13:34:45;21.90;85.60
35700;DHT22;21818;51.078;12.108;2023-07-20T13:37:11;21.90;85.50
35700;DHT22;21818;51.078;12.108;2023-07-20T13:39:38;22.00;85.50
35700;DHT22;21818;51.078;12.108;2023-07-20T13:42:04;22.00;85.40
35700;DHT22;21818;51.078;12.108;2023-07-20T13:44:33;22.00;85.40
35700;DHT22;21818;51.078;12.108;2023-07-20T13:47:00;22.00;85.30
35700;DHT22;21818;51.078;12.108;2023-07-20T13:49:26;22.00;85.20
35700;DHT22;21818;51.078;12.108;2023-07-20T13:51:52;22.00;85.20
35700;DHT22;21818;51.078;12.108;2023-07-20T13:54:17;22.00;85.10
35700;DHT22;21818;51.078;12.108;2023-07-20T13:56:43;22.00;85.10
35700;DHT22;21818;51.078;12.108;2023-07-20T13:59:08;22.00;85.10
35700;DHT22;21818;51.078;12.108;2023-07-20T14:01:34;22.10;85.10
35700;DHT22;21818;51.078;12.108;2023-07-20T14:04:01;22.10;85.10
35700;DHT22;21818;51.078;12.108;2023-07-20T14:06:30;22.10;85.00
35700;DHT22;21818;51.078;12.108;2023-07-20T14:08:56;22.10;85.00
35700;DHT22;21818;51.078;12.108;2023-07-20T14:11:22;22.10;84.90
35700;DHT22;21818;51.078;12.108;2023-07-20T14:13:49;22.10;84.80
35700;DHT22;21818;51.078;12.108;2023-07-20T14:16:15;22.20;84.80
35700;DHT22;21818;51.078;12.108;2023-07-20T14:18:40;22.20;84.80
35700;DHT22;21818;51.078;12.108;2023-07-20T14:21:06;22.20;84.70
35700;DHT22;21818;51.078;12.108;2023-07-20T14:23:32;22.20;84.60
35700;DHT22;21818;51.078;12.108;2023-07-20T14:25:58;22.20;84.40
35700;DHT22;21818;51.078;12.108;2023-07-20T14:28:24;22.20;84.40
35700;DHT22;21818;51.078;12.108;2023-07-20T14:30:50;22.30;84.30
35700;DHT22;21818;51.078;12.108;2023-07-20T14:33:16;22.30;84.20
35700;DHT22;21818;51.078;12.108;2023-07-20T14:35:42;22.30;84.10
35700;DHT22;21818;51.078;12.108;2023-07-20T14:38:08;22.30;84.00
35700;DHT22;21818;51.078;12.108;2023-07-20T14:40:33;22.30;83.90
35700;DHT22;21818;51.078;12.108;2023-07-20T14:42:59;22.30;83.90
35700;DHT22;21818;51.078;12.108;2023-07-20T14:45:28;22.30;83.80
35700;DHT22;21818;51.078;12.108;2023-07-20T14:47:54;22.30;83.70
35700;DHT22;21818;51.078;12.108;2023-07-20T14:50:20;22.40;83.70
35700;DHT22;21818;51.078;12.108;2023-07-20T14:52:46;22.40;83.60
35700;DHT22;21818;51.078;12.108;2023-07-20T14:55:13;22.40;83.50
35700;DHT22;21818;51.078;12.108;2023-07-20T14:57:39;22.40;83.40
35700;DHT22;21818;51.078;12.108;2023-07-20T15:00:05;22.40;83.40
35700;DHT22;21818;51.078;12.108;2023-07-20T15:02:33;22.40;83.30
35700;DHT22;21818;51.078;12.108;2023-07-20T15:04:59;22.50;83.30
35700;DHT22;21818;51.078;12.108;2023-07-20T15:07:25;22.50;83.20
35700;DHT22;21818;51.078;12.108;2023-07-20T15:09:51;22.50;83.10
35700;DHT22;21818;51.078;12.108;2023-07-20T15:12:16;22.50;83.10
35700;DHT22;21818;51.078;12.108;2023-07-20T15:14:43;22.50;83.00
35700;DHT22;21818;51.078;12.108;2023-07-20T15:17:10;22.50;82.90
35700;DHT22;21818;51.078;12.108;2023-07-20T15:19:35;22.50;82.90
35700;DHT22;21818;51.078;12.108;2023-07-20T15:22:02;22.50;82.80
35700;DHT22;21818;51.078;12.108;2023-07-20T15:24:32;22.50;82.70
35700;DHT22;21818;51.078;12.108;2023-07-20T15:26:58;22.60;82.70
35700;DHT22;21818;51.078;12.108;2023-07-20T15:29:24;22.60;82.70
35700;DHT22;21818;51.078;12.108;2023-07-20T15:31:50;22.60;82.60